sensor_id;sensor_type;location;lat;lon;timestamp;P1;durP1;ratioP1;P2;durP2;ratioP2
18752;SDS011;9505;50.882;5.350;2022-07-23T00:00:33;20.00;;;7.22;;
18752;SDS011;9505;50.882;5.350;2022-07-23T00:02:59;21.67;;;8.13;;
18752;SDS011;9505;50.882;5.350;2022-07-23T00:05:24;22.65;;;7.93;;
18752;SDS011;9505;50.882;5.350;2022-07-23T00:07:50;20.02;;;7.68;;
18752;SDS011;9505;50.882;5.350;2022-07-23T00:10:16;22.80;;;8.30;;
18752;SDS011;9505;50.882;5.350;2022-07-23T00:12:42;21.13;;;7.57;;
18752;SDS011;9505;50.882;5.350;2022-07-23T00:15:08;15.50;;;7.07;;
18752;SDS011;9505;50.882;5.350;2022-07-23T00:17:34;22.17;;;8.02;;
18752;SDS011;9505;50.882;5.350;2022-07-23T00:19:59;18.90;;;8.20;;
18752;SDS011;9505;50.882;5.350;2022-07-23T00:22:26;21.80;;;8.07;;
18752;SDS011;9505;50.882;5.350;2022-07-23T00:24:52;20.10;;;8.50;;
18752;SDS011;9505;50.882;5.350;2022-07-23T00:27:18;34.42;;;10.45;;
18752;SDS011;9505;50.882;5.350;2022-07-23T00:29:44;21.00;;;7.70;;
18752;SDS011;9505;50.882;5.350;2022-07-23T00:32:09;21.25;;;7.45;;
18752;SDS011;9505;50.882;5.350;2022-07-23T00:34:35;26.88;;;10.23;;
18752;SDS011;9505;50.882;5.350;2022-07-23T00:37:01;25.80;;;8.80;;
18752;SDS011;9505;50.882;5.350;2022-07-23T00:39:26;29.48;;;10.90;;
18752;SDS011;9505;50.882;5.350;2022-07-23T00:41:52;23.55;;;8.65;;
18752;SDS011;9505;50.882;5.350;2022-07-23T00:44:22;29.90;;;9.75;;
18752;SDS011;9505;50.882;5.350;2022-07-23T00:46:50;20.35;;;9.55;;
18752;SDS011;9505;50.882;5.350;2022-07-23T00:49:22;27.80;;;10.60;;
18752;SDS011;9505;50.882;5.350;2022-07-23T00:51:50;23.77;;;9.80;;
18752;SDS011;9505;50.882;5.350;2022-07-23T00:54:16;27.35;;;9.40;;
18752;SDS011;9505;50.882;5.350;2022-07-23T00:56:44;29.77;;;10.75;;
18752;SDS011;9505;50.882;5.350;2022-07-23T00:59:11;29.95;;;10.68;;
18752;SDS011;9505;50.882;5.350;2022-07-23T01:01:37;27.25;;;10.27;;
18752;SDS011;9505;50.882;5.350;2022-07-23T01:04:03;29.27;;;9.90;;
18752;SDS011;9505;50.882;5.350;2022-07-23T01:06:30;25.23;;;9.90;;
18752;SDS011;9505;50.882;5.350;2022-07-23T01:09:00;24.70;;;9.60;;
18752;SDS011;9505;50.882;5.350;2022-07-23T01:11:25;20.85;;;9.43;;
18752;SDS011;9505;50.882;5.350;2022-07-23T01:13:51;26.20;;;10.48;;
18752;SDS011;9505;50.882;5.350;2022-07-23T01:16:17;26.23;;;9.93;;
18752;SDS011;9505;50.882;5.350;2022-07-23T01:18:43;29.02;;;11.20;;
18752;SDS011;9505;50.882;5.350;2022-07-23T01:21:09;29.25;;;9.38;;
18752;SDS011;9505;50.882;5.350;2022-07-23T01:23:40;26.88;;;10.00;;
18752;SDS011;9505;50.882;5.350;2022-07-23T01:26:06;27.80;;;10.05;;
18752;SDS011;9505;50.882;5.350;2022-07-23T01:28:32;28.08;;;9.48;;
18752;SDS011;9505;50.882;5.350;2022-07-23T01:30:57;26.88;;;9.50;;
18752;SDS011;9505;50.882;5.350;2022-07-23T01:33:23;29.30;;;10.02;;
18752;SDS011;9505;50.882;5.350;2022-07-23T01:35:49;27.55;;;9.68;;
18752;SDS011;9505;50.882;5.350;2022-07-23T01:38:14;24.10;;;9.25;;
18752;SDS011;9505;50.882;5.350;2022-07-23T01:40:41;27.35;;;11.20;;
18752;SDS011;9505;50.882;5.350;2022-07-23T01:43:06;31.90;;;12.35;;
18752;SDS011;9505;50.882;5.350;2022-07-23T01:45:32;26.27;;;10.65;;
18752;SDS011;9505;50.882;5.350;2022-07-23T01:47:58;29.08;;;12.05;;
18752;SDS011;9505;50.882;5.350;2022-07-23T01:50:23;26.67;;;10.35;;
18752;SDS011;9505;50.882;5.350;2022-07-23T01:52:49;32.85;;;11.45;;
18752;SDS011;9505;50.882;5.350;2022-07-23T01:55:14;25.45;;;10.38;;
18752;SDS011;9505;50.882;5.350;2022-07-23T01:57:40;26.60;;;10.60;;
18752;SDS011;9505;50.882;5.350;2022-07-23T02:00:06;33.88;;;10.45;;
18752;SDS011;9505;50.882;5.350;2022-07-23T02:02:32;27.27;;;10.02;;
18752;SDS011;9505;50.882;5.350;2022-07-23T02:04:58;30.60;;;11.32;;
18752;SDS011;9505;50.882;5.350;2022-07-23T02:07:23;32.65;;;11.40;;
18752;SDS011;9505;50.882;5.350;2022-07-23T02:09:49;36.78;;;11.88;;
18752;SDS011;9505;50.882;5.350;2022-07-23T02:12:15;27.73;;;11.77;;
18752;SDS011;9505;50.882;5.350;2022-07-23T02:14:40;31.83;;;11.48;;
18752;SDS011;9505;50.882;5.350;2022-07-23T02:17:06;28.38;;;10.70;;
18752;SDS011;9505;50.882;5.350;2022-07-23T02:19:31;26.73;;;10.00;;
18752;SDS011;9505;50.882;5.350;2022-07-23T02:21:57;29.25;;;11.10;;
18752;SDS011;9505;50.882;5.350;2022-07-23T02:24:23;28.80;;;10.35;;
18752;SDS011;9505;50.882;5.350;2022-07-23T02:26:48;31.02;;;10.90;;
18752;SDS011;9505;50.882;5.350;2022-07-23T02:29:14;33.10;;;11.25;;
18752;SDS011;9505;50.882;5.350;2022-07-23T02:31:40;32.97;;;11.85;;
18752;SDS011;9505;50.882;5.350;2022-07-23T02:34:05;33.33;;;12.68;;
18752;SDS011;9505;50.882;5.350;2022-07-23T02:36:32;26.02;;;10.10;;
18752;SDS011;9505;50.882;5.350;2022-07-23T02:38:57;27.70;;;11.13;;
18752;SDS011;9505;50.882;5.350;2022-07-23T02:41:23;31.15;;;11.38;;
18752;SDS011;9505;50.882;5.350;2022-07-23T02:43:49;30.55;;;11.93;;
18752;SDS011;9505;50.882;5.350;2022-07-23T02:46:15;32.35;;;12.27;;
18752;SDS011;9505;50.882;5.350;2022-07-23T02:48:41;37.22;;;13.73;;
18752;SDS011;9505;50.882;5.350;2022-07-23T02:51:06;33.95;;;12.43;;
18752;SDS011;9505;50.882;5.350;2022-07-23T02:53:32;44.70;;;13.85;;
18752;SDS011;9505;50.882;5.350;2022-07-23T02:55:58;32.60;;;12.93;;
18752;SDS011;9505;50.882;5.350;2022-07-23T02:58:24;31.75;;;11.15;;
18752;SDS011;9505;50.882;5.350;2022-07-23T03:00:51;42.17;;;11.98;;
18752;SDS011;9505;50.882;5.350;2022-07-23T03:03:17;28.15;;;10.77;;
18752;SDS011;9505;50.882;5.350;2022-07-23T03:05:43;34.10;;;12.25;;
18752;SDS011;9505;50.882;5.350;2022-07-23T03:08:09;33.40;;;11.93;;
18752;SDS011;9505;50.882;5.350;2022-07-23T03:10:34;27.42;;;10.90;;
18752;SDS011;9505;50.882;5.350;2022-07-23T03:13:00;36.28;;;11.90;;
18752;SDS011;9505;50.882;5.350;2022-07-23T03:15:25;35.00;;;10.80;;
18752;SDS011;9505;50.882;5.350;2022-07-23T03:17:51;35.10;;;12.02;;
18752;SDS011;9505;50.882;5.350;2022-07-23T03:20:17;36.95;;;13.00;;
18752;SDS011;9505;50.882;5.350;2022-07-23T03:22:42;38.03;;;12.02;;
18752;SDS011;9505;50.882;5.350;2022-07-23T03:25:08;28.80;;;11.05;;
18752;SDS011;9505;50.882;5.350;2022-07-23T03:27:34;40.22;;;12.13;;
18752;SDS011;9505;50.882;5.350;2022-07-23T03:30:00;31.58;;;10.45;;
18752;SDS011;9505;50.882;5.350;2022-07-23T03:32:26;24.70;;;9.98;;
18752;SDS011;9505;50.882;5.350;2022-07-23T03:34:52;30.65;;;10.20;;
18752;SDS011;9505;50.882;5.350;2022-07-23T03:37:18;36.55;;;11.70;;
18752;SDS011;9505;50.882;5.350;2022-07-23T03:39:44;37.42;;;12.10;;
18752;SDS011;9505;50.882;5.350;2022-07-23T03:42:10;31.02;;;12.05;;
18752;SDS011;9505;50.882;5.350;2022-07-23T03:44:36;29.20;;;10.68;;
18752;SDS011;9505;50.882;5.350;2022-07-23T03:47:03;32.05;;;10.00;;
18752;SDS011;9505;50.882;5.350;2022-07-23T03:49:29;27.70;;;10.93;;
18752;SDS011;9505;50.882;5.350;2022-07-23T03:51:55;33.95;;;11.68;;
18752;SDS011;9505;50.882;5.350;2022-07-23T03:54:21;26.40;;;10.45;;
18752;SDS011;9505;50.882;5.350;2022-07-23T03:56:47;29.15;;;10.15;;
18752;SDS011;9505;50.882;5.350;2022-07-23T03:59:12;30.85;;;11.48;;
18752;SDS011;9505;50.882;5.350;2022-07-23T04:01:38;31.10;;;11.20;;
18752;SDS011;9505;50.882;5.350;2022-07-23T04:04:04;29.77;;;10.88;;
18752;SDS011;9505;50.882;5.350;2022-07-23T04:06:29;26.88;;;9.52;;
18752;SDS011;9505;50.882;5.350;2022-07-23T04:08:55;36.88;;;12.30;;
18752;SDS011;9505;50.882;5.350;2022-07-23T04:11:21;29.27;;;11.52;;
18752;SDS011;9505;50.882;5.350;2022-07-23T04:13:46;29.70;;;12.25;;
18752;SDS011;9505;50.882;5.350;2022-07-23T04:16:12;27.65;;;10.93;;
18752;SDS011;9505;50.882;5.350;2022-07-23T04:18:38;34.80;;;11.00;;
18752;SDS011;9505;50.882;5.350;2022-07-23T04:21:03;41.03;;;13.13;;
18752;SDS011;9505;50.882;5.350;2022-07-23T04:23:29;39.75;;;13.90;;
18752;SDS011;9505;50.882;5.350;2022-07-23T04:25:55;31.50;;;11.95;;
18752;SDS011;9505;50.882;5.350;2022-07-23T04:28:20;33.15;;;11.80;;
18752;SDS011;9505;50.882;5.350;2022-07-23T04:30:46;39.22;;;13.68;;
18752;SDS011;9505;50.882;5.350;2022-07-23T04:33:11;33.85;;;12.57;;
18752;SDS011;9505;50.882;5.350;2022-07-23T04:35:37;26.55;;;10.27;;
18752;SDS011;9505;50.882;5.350;2022-07-23T04:38:03;35.85;;;12.05;;
18752;SDS011;9505;50.882;5.350;2022-07-23T04:40:29;28.80;;;10.95;;
18752;SDS011;9505;50.882;5.350;2022-07-23T04:42:55;30.23;;;11.85;;
18752;SDS011;9505;50.882;5.350;2022-07-23T04:45:22;35.97;;;13.18;;
18752;SDS011;9505;50.882;5.350;2022-07-23T04:47:50;37.85;;;13.63;;
18752;SDS011;9505;50.882;5.350;2022-07-23T04:50:16;43.78;;;13.35;;
18752;SDS011;9505;50.882;5.350;2022-07-23T04:52:46;46.03;;;14.70;;
18752;SDS011;9505;50.882;5.350;2022-07-23T04:55:12;39.65;;;12.82;;
18752;SDS011;9505;50.882;5.350;2022-07-23T04:57:38;43.28;;;14.50;;
18752;SDS011;9505;50.882;5.350;2022-07-23T05:00:03;41.60;;;14.10;;
18752;SDS011;9505;50.882;5.350;2022-07-23T05:02:30;36.08;;;14.30;;
18752;SDS011;9505;50.882;5.350;2022-07-23T05:04:56;39.30;;;13.48;;
18752;SDS011;9505;50.882;5.350;2022-07-23T05:07:22;44.65;;;14.40;;
18752;SDS011;9505;50.882;5.350;2022-07-23T05:09:47;40.13;;;15.00;;
18752;SDS011;9505;50.882;5.350;2022-07-23T05:12:13;39.58;;;13.65;;
18752;SDS011;9505;50.882;5.350;2022-07-23T05:14:39;48.20;;;15.80;;
18752;SDS011;9505;50.882;5.350;2022-07-23T05:17:04;46.33;;;14.65;;
18752;SDS011;9505;50.882;5.350;2022-07-23T05:19:30;46.33;;;13.98;;
18752;SDS011;9505;50.882;5.350;2022-07-23T05:21:55;47.15;;;16.40;;
18752;SDS011;9505;50.882;5.350;2022-07-23T05:24:21;46.60;;;15.50;;
18752;SDS011;9505;50.882;5.350;2022-07-23T05:26:47;39.83;;;14.32;;
18752;SDS011;9505;50.882;5.350;2022-07-23T05:29:12;35.22;;;13.43;;
18752;SDS011;9505;50.882;5.350;2022-07-23T05:31:38;38.30;;;14.07;;
18752;SDS011;9505;50.882;5.350;2022-07-23T05:34:03;44.85;;;15.27;;
18752;SDS011;9505;50.882;5.350;2022-07-23T05:36:30;45.40;;;15.65;;
18752;SDS011;9505;50.882;5.350;2022-07-23T05:38:56;44.20;;;15.88;;
18752;SDS011;9505;50.882;5.350;2022-07-23T05:41:22;48.85;;;15.25;;
18752;SDS011;9505;50.882;5.350;2022-07-23T05:43:48;40.38;;;17.48;;
18752;SDS011;9505;50.882;5.350;2022-07-23T05:46:13;36.10;;;15.18;;
18752;SDS011;9505;50.882;5.350;2022-07-23T05:48:39;26.48;;;13.95;;
18752;SDS011;9505;50.882;5.350;2022-07-23T05:51:05;28.20;;;12.85;;
18752;SDS011;9505;50.882;5.350;2022-07-23T05:53:31;24.38;;;11.90;;
18752;SDS011;9505;50.882;5.350;2022-07-23T05:55:58;17.55;;;9.75;;
18752;SDS011;9505;50.882;5.350;2022-07-23T05:58:24;20.15;;;8.88;;
18752;SDS011;9505;50.882;5.350;2022-07-23T06:00:50;19.73;;;8.57;;
18752;SDS011;9505;50.882;5.350;2022-07-23T06:03:15;13.85;;;7.15;;
18752;SDS011;9505;50.882;5.350;2022-07-23T06:05:41;14.25;;;7.25;;
18752;SDS011;9505;50.882;5.350;2022-07-23T06:08:07;13.35;;;5.97;;
18752;SDS011;9505;50.882;5.350;2022-07-23T06:10:32;13.00;;;6.72;;
18752;SDS011;9505;50.882;5.350;2022-07-23T06:12:58;12.60;;;5.93;;
18752;SDS011;9505;50.882;5.350;2022-07-23T06:15:24;17.08;;;6.95;;
18752;SDS011;9505;50.882;5.350;2022-07-23T06:17:49;17.75;;;6.18;;
18752;SDS011;9505;50.882;5.350;2022-07-23T06:20:15;15.25;;;5.57;;
18752;SDS011;9505;50.882;5.350;2022-07-23T06:22:40;10.18;;;5.45;;
18752;SDS011;9505;50.882;5.350;2022-07-23T06:25:06;12.55;;;5.97;;
18752;SDS011;9505;50.882;5.350;2022-07-23T06:27:32;11.45;;;5.15;;
18752;SDS011;9505;50.882;5.350;2022-07-23T06:29:58;9.52;;;4.50;;
18752;SDS011;9505;50.882;5.350;2022-07-23T06:32:24;11.05;;;6.22;;
18752;SDS011;9505;50.882;5.350;2022-07-23T06:34:49;13.85;;;6.07;;
18752;SDS011;9505;50.882;5.350;2022-07-23T06:37:15;11.90;;;5.55;;
18752;SDS011;9505;50.882;5.350;2022-07-23T06:39:41;16.08;;;6.20;;
18752;SDS011;9505;50.882;5.350;2022-07-23T06:42:07;15.20;;;6.75;;
18752;SDS011;9505;50.882;5.350;2022-07-23T06:44:32;25.95;;;8.20;;
18752;SDS011;9505;50.882;5.350;2022-07-23T06:46:58;12.98;;;5.45;;
18752;SDS011;9505;50.882;5.350;2022-07-23T06:49:23;17.58;;;6.70;;
18752;SDS011;9505;50.882;5.350;2022-07-23T06:51:49;14.68;;;6.20;;
18752;SDS011;9505;50.882;5.350;2022-07-23T06:54:15;10.55;;;5.35;;
18752;SDS011;9505;50.882;5.350;2022-07-23T06:56:40;15.35;;;8.07;;
18752;SDS011;9505;50.882;5.350;2022-07-23T06:59:07;13.43;;;6.72;;
18752;SDS011;9505;50.882;5.350;2022-07-23T07:01:33;18.02;;;7.18;;
18752;SDS011;9505;50.882;5.350;2022-07-23T07:03:59;14.65;;;6.55;;
18752;SDS011;9505;50.882;5.350;2022-07-23T07:06:24;16.33;;;8.68;;
18752;SDS011;9505;50.882;5.350;2022-07-23T07:08:50;18.20;;;8.27;;
18752;SDS011;9505;50.882;5.350;2022-07-23T07:11:15;19.05;;;9.23;;
18752;SDS011;9505;50.882;5.350;2022-07-23T07:13:41;21.05;;;9.55;;
18752;SDS011;9505;50.882;5.350;2022-07-23T07:16:07;13.52;;;6.97;;
18752;SDS011;9505;50.882;5.350;2022-07-23T07:18:32;23.45;;;9.45;;
18752;SDS011;9505;50.882;5.350;2022-07-23T07:20:58;19.05;;;8.95;;
18752;SDS011;9505;50.882;5.350;2022-07-23T07:23:23;25.23;;;9.15;;
18752;SDS011;9505;50.882;5.350;2022-07-23T07:25:49;28.40;;;10.73;;
18752;SDS011;9505;50.882;5.350;2022-07-23T07:28:15;17.85;;;8.50;;
18752;SDS011;9505;50.882;5.350;2022-07-23T07:30:41;18.52;;;8.00;;
18752;SDS011;9505;50.882;5.350;2022-07-23T07:33:06;16.40;;;8.05;;
18752;SDS011;9505;50.882;5.350;2022-07-23T07:35:32;14.95;;;7.70;;
18752;SDS011;9505;50.882;5.350;2022-07-23T07:37:59;17.08;;;7.97;;
18752;SDS011;9505;50.882;5.350;2022-07-23T07:40:25;16.63;;;8.73;;
18752;SDS011;9505;50.882;5.350;2022-07-23T07:42:52;18.98;;;8.05;;
18752;SDS011;9505;50.882;5.350;2022-07-23T07:45:22;16.92;;;8.82;;
18752;SDS011;9505;50.882;5.350;2022-07-23T07:47:49;22.10;;;8.95;;
18752;SDS011;9505;50.882;5.350;2022-07-23T07:50:16;15.57;;;8.27;;
18752;SDS011;9505;50.882;5.350;2022-07-23T07:52:41;13.50;;;7.55;;
18752;SDS011;9505;50.882;5.350;2022-07-23T07:55:08;16.13;;;6.55;;
18752;SDS011;9505;50.882;5.350;2022-07-23T07:57:35;20.45;;;6.65;;
18752;SDS011;9505;50.882;5.350;2022-07-23T08:00:01;13.00;;;6.60;;
18752;SDS011;9505;50.882;5.350;2022-07-23T08:02:29;23.10;;;7.45;;
18752;SDS011;9505;50.882;5.350;2022-07-23T08:05:08;16.70;;;6.82;;
18752;SDS011;9505;50.882;5.350;2022-07-23T08:07:34;19.20;;;6.32;;
18752;SDS011;9505;50.882;5.350;2022-07-23T08:10:00;14.50;;;7.25;;
18752;SDS011;9505;50.882;5.350;2022-07-23T08:12:26;17.27;;;6.72;;
18752;SDS011;9505;50.882;5.350;2022-07-23T08:14:51;16.83;;;5.93;;
18752;SDS011;9505;50.882;5.350;2022-07-23T08:17:17;18.10;;;6.82;;
18752;SDS011;9505;50.882;5.350;2022-07-23T08:19:43;17.48;;;6.78;;
18752;SDS011;9505;50.882;5.350;2022-07-23T08:22:09;22.50;;;6.55;;
18752;SDS011;9505;50.882;5.350;2022-07-23T08:24:34;14.48;;;6.32;;
18752;SDS011;9505;50.882;5.350;2022-07-23T08:27:00;11.68;;;6.20;;
18752;SDS011;9505;50.882;5.350;2022-07-23T08:29:26;12.52;;;5.90;;
18752;SDS011;9505;50.882;5.350;2022-07-23T08:31:51;15.77;;;6.28;;
18752;SDS011;9505;50.882;5.350;2022-07-23T08:34:17;21.42;;;7.35;;
18752;SDS011;9505;50.882;5.350;2022-07-23T08:36:42;18.05;;;6.55;;
18752;SDS011;9505;50.882;5.350;2022-07-23T08:39:08;15.30;;;6.68;;
18752;SDS011;9505;50.882;5.350;2022-07-23T08:41:34;23.92;;;6.60;;
18752;SDS011;9505;50.882;5.350;2022-07-23T08:44:00;26.25;;;8.10;;
18752;SDS011;9505;50.882;5.350;2022-07-23T08:46:26;22.90;;;6.97;;
18752;SDS011;9505;50.882;5.350;2022-07-23T08:48:52;15.02;;;5.60;;
18752;SDS011;9505;50.882;5.350;2022-07-23T08:51:19;27.05;;;7.07;;
18752;SDS011;9505;50.882;5.350;2022-07-23T08:53:46;18.15;;;6.25;;
18752;SDS011;9505;50.882;5.350;2022-07-23T08:56:12;15.80;;;6.18;;
18752;SDS011;9505;50.882;5.350;2022-07-23T08:58:38;13.50;;;5.43;;
18752;SDS011;9505;50.882;5.350;2022-07-23T09:01:04;20.23;;;5.90;;
18752;SDS011;9505;50.882;5.350;2022-07-23T09:03:31;37.83;;;8.32;;
18752;SDS011;9505;50.882;5.350;2022-07-23T09:05:58;10.57;;;5.07;;
18752;SDS011;9505;50.882;5.350;2022-07-23T09:11:04;20.00;;;5.75;;
18752;SDS011;9505;50.882;5.350;2022-07-23T09:21:24;15.55;;;5.78;;
18752;SDS011;9505;50.882;5.350;2022-07-23T09:24:00;14.30;;;5.35;;
18752;SDS011;9505;50.882;5.350;2022-07-23T09:26:34;15.88;;;5.57;;
18752;SDS011;9505;50.882;5.350;2022-07-23T09:29:12;14.93;;;5.03;;
18752;SDS011;9505;50.882;5.350;2022-07-23T09:31:49;14.10;;;5.57;;
18752;SDS011;9505;50.882;5.350;2022-07-23T09:34:30;15.40;;;4.70;;
18752;SDS011;9505;50.882;5.350;2022-07-23T09:37:10;18.67;;;5.47;;
18752;SDS011;9505;50.882;5.350;2022-07-23T09:39:41;27.58;;;7.10;;
18752;SDS011;9505;50.882;5.350;2022-07-23T09:42:20;12.45;;;5.63;;
18752;SDS011;9505;50.882;5.350;2022-07-23T09:44:51;13.82;;;4.93;;
18752;SDS011;9505;50.882;5.350;2022-07-23T09:47:21;14.93;;;4.60;;
18752;SDS011;9505;50.882;5.350;2022-07-23T09:50:07;12.57;;;4.78;;
18752;SDS011;9505;50.882;5.350;2022-07-23T09:52:35;13.20;;;5.72;;
18752;SDS011;9505;50.882;5.350;2022-07-23T09:55:12;16.10;;;4.32;;
18752;SDS011;9505;50.882;5.350;2022-07-23T09:57:40;23.83;;;6.32;;
18752;SDS011;9505;50.882;5.350;2022-07-23T10:00:07;14.68;;;5.47;;
18752;SDS011;9505;50.882;5.350;2022-07-23T10:02:35;16.83;;;5.35;;
18752;SDS011;9505;50.882;5.350;2022-07-23T10:05:01;12.35;;;5.35;;
18752;SDS011;9505;50.882;5.350;2022-07-23T10:07:28;15.43;;;5.22;;
18752;SDS011;9505;50.882;5.350;2022-07-23T10:09:58;16.88;;;5.32;;
18752;SDS011;9505;50.882;5.350;2022-07-23T10:12:24;16.85;;;4.82;;
18752;SDS011;9505;50.882;5.350;2022-07-23T10:14:51;15.82;;;4.78;;
18752;SDS011;9505;50.882;5.350;2022-07-23T10:17:17;15.65;;;5.22;;
18752;SDS011;9505;50.882;5.350;2022-07-23T10:19:44;26.13;;;6.28;;
18752;SDS011;9505;50.882;5.350;2022-07-23T10:22:11;13.25;;;4.70;;
18752;SDS011;9505;50.882;5.350;2022-07-23T10:25:03;15.10;;;5.18;;
18752;SDS011;9505;50.882;5.350;2022-07-23T10:33:18;10.48;;;4.70;;
18752;SDS011;9505;50.882;5.350;2022-07-23T10:38:54;11.98;;;4.97;;
18752;SDS011;9505;50.882;5.350;2022-07-23T10:41:44;19.02;;;5.97;;
18752;SDS011;9505;50.882;5.350;2022-07-23T10:44:17;15.85;;;4.85;;
18752;SDS011;9505;50.882;5.350;2022-07-23T10:47:02;16.77;;;5.05;;
18752;SDS011;9505;50.882;5.350;2022-07-23T10:49:47;16.75;;;5.00;;
18752;SDS011;9505;50.882;5.350;2022-07-23T10:54:39;20.67;;;5.13;;
18752;SDS011;9505;50.882;5.350;2022-07-23T10:57:16;8.48;;;4.07;;
18752;SDS011;9505;50.882;5.350;2022-07-23T11:02:39;23.48;;;5.78;;
18752;SDS011;9505;50.882;5.350;2022-07-23T11:05:10;15.02;;;4.90;;
18752;SDS011;9505;50.882;5.350;2022-07-23T11:10:34;10.25;;;4.20;;
18752;SDS011;9505;50.882;5.350;2022-07-23T11:13:25;13.75;;;4.28;;
18752;SDS011;9505;50.882;5.350;2022-07-23T11:23:58;11.77;;;4.00;;
18752;SDS011;9505;50.882;5.350;2022-07-23T11:34:30;10.38;;;3.95;;
18752;SDS011;9505;50.882;5.350;2022-07-23T11:37:07;10.77;;;3.55;;
18752;SDS011;9505;50.882;5.350;2022-07-23T11:39:34;8.35;;;3.28;;
18752;SDS011;9505;50.882;5.350;2022-07-23T11:42:01;9.10;;;3.40;;
18752;SDS011;9505;50.882;5.350;2022-07-23T11:44:33;9.95;;;3.15;;
18752;SDS011;9505;50.882;5.350;2022-07-23T11:47:03;11.13;;;3.65;;
18752;SDS011;9505;50.882;5.350;2022-07-23T11:49:33;8.55;;;3.60;;
18752;SDS011;9505;50.882;5.350;2022-07-23T11:52:09;11.85;;;3.58;;
18752;SDS011;9505;50.882;5.350;2022-07-23T11:54:36;12.73;;;3.75;;
18752;SDS011;9505;50.882;5.350;2022-07-23T11:57:16;15.30;;;3.33;;
18752;SDS011;9505;50.882;5.350;2022-07-23T11:59:42;11.10;;;3.22;;
18752;SDS011;9505;50.882;5.350;2022-07-23T12:02:10;11.15;;;3.72;;
18752;SDS011;9505;50.882;5.350;2022-07-23T12:04:46;11.60;;;3.80;;
18752;SDS011;9505;50.882;5.350;2022-07-23T12:10:00;16.92;;;3.30;;
18752;SDS011;9505;50.882;5.350;2022-07-23T12:12:39;9.38;;;3.13;;
18752;SDS011;9505;50.882;5.350;2022-07-23T12:15:14;12.90;;;3.55;;
18752;SDS011;9505;50.882;5.350;2022-07-23T12:17:42;9.02;;;2.90;;
18752;SDS011;9505;50.882;5.350;2022-07-23T12:20:12;12.85;;;3.42;;
18752;SDS011;9505;50.882;5.350;2022-07-23T12:22:40;10.20;;;3.13;;
18752;SDS011;9505;50.882;5.350;2022-07-23T12:27:38;12.82;;;2.88;;
18752;SDS011;9505;50.882;5.350;2022-07-23T12:32:43;10.07;;;2.83;;
18752;SDS011;9505;50.882;5.350;2022-07-23T12:35:10;8.25;;;2.97;;
18752;SDS011;9505;50.882;5.350;2022-07-23T12:37:36;8.45;;;2.70;;
18752;SDS011;9505;50.882;5.350;2022-07-23T12:40:20;9.57;;;2.85;;
18752;SDS011;9505;50.882;5.350;2022-07-23T12:42:55;18.88;;;3.45;;
18752;SDS011;9505;50.882;5.350;2022-07-23T12:45:26;7.00;;;2.28;;
18752;SDS011;9505;50.882;5.350;2022-07-23T12:47:54;8.85;;;2.25;;
18752;SDS011;9505;50.882;5.350;2022-07-23T12:51:21;7.78;;;2.20;;
18752;SDS011;9505;50.882;5.350;2022-07-23T12:55:48;11.65;;;2.70;;
18752;SDS011;9505;50.882;5.350;2022-07-23T12:58:16;11.30;;;2.83;;
18752;SDS011;9505;50.882;5.350;2022-07-23T13:03:28;9.13;;;2.58;;
18752;SDS011;9505;50.882;5.350;2022-07-23T13:06:01;10.23;;;2.70;;
18752;SDS011;9505;50.882;5.350;2022-07-23T13:08:29;11.68;;;2.65;;
18752;SDS011;9505;50.882;5.350;2022-07-23T13:10:57;11.50;;;2.78;;
18752;SDS011;9505;50.882;5.350;2022-07-23T13:13:24;9.63;;;2.75;;
18752;SDS011;9505;50.882;5.350;2022-07-23T13:15:51;10.02;;;2.65;;
18752;SDS011;9505;50.882;5.350;2022-07-23T13:18:18;8.50;;;2.50;;
18752;SDS011;9505;50.882;5.350;2022-07-23T13:20:45;8.07;;;2.45;;
18752;SDS011;9505;50.882;5.350;2022-07-23T13:23:12;8.65;;;2.80;;
18752;SDS011;9505;50.882;5.350;2022-07-23T13:25:38;8.07;;;2.38;;
18752;SDS011;9505;50.882;5.350;2022-07-23T13:28:04;10.40;;;2.72;;
18752;SDS011;9505;50.882;5.350;2022-07-23T13:30:30;10.57;;;2.30;;
18752;SDS011;9505;50.882;5.350;2022-07-23T13:32:55;9.57;;;2.67;;
18752;SDS011;9505;50.882;5.350;2022-07-23T13:35:21;9.75;;;3.05;;
18752;SDS011;9505;50.882;5.350;2022-07-23T13:37:47;9.27;;;2.42;;
18752;SDS011;9505;50.882;5.350;2022-07-23T13:40:13;6.70;;;2.20;;
18752;SDS011;9505;50.882;5.350;2022-07-23T13:42:39;8.02;;;2.28;;
18752;SDS011;9505;50.882;5.350;2022-07-23T13:45:05;9.80;;;2.88;;
18752;SDS011;9505;50.882;5.350;2022-07-23T13:47:31;7.07;;;2.20;;
18752;SDS011;9505;50.882;5.350;2022-07-23T13:49:57;12.23;;;3.25;;
18752;SDS011;9505;50.882;5.350;2022-07-23T13:52:22;12.52;;;2.78;;
18752;SDS011;9505;50.882;5.350;2022-07-23T13:54:49;14.57;;;3.03;;
18752;SDS011;9505;50.882;5.350;2022-07-23T13:57:14;9.85;;;3.00;;
18752;SDS011;9505;50.882;5.350;2022-07-23T13:59:40;9.40;;;2.75;;
18752;SDS011;9505;50.882;5.350;2022-07-23T14:02:06;7.65;;;2.42;;
18752;SDS011;9505;50.882;5.350;2022-07-23T14:04:32;9.15;;;2.70;;
18752;SDS011;9505;50.882;5.350;2022-07-23T14:06:58;20.20;;;3.75;;
18752;SDS011;9505;50.882;5.350;2022-07-23T14:09:24;8.80;;;2.63;;
18752;SDS011;9505;50.882;5.350;2022-07-23T14:11:50;7.85;;;2.90;;
18752;SDS011;9505;50.882;5.350;2022-07-23T14:14:16;6.45;;;2.60;;
18752;SDS011;9505;50.882;5.350;2022-07-23T14:16:43;10.70;;;2.78;;
18752;SDS011;9505;50.882;5.350;2022-07-23T14:19:09;12.82;;;3.40;;
18752;SDS011;9505;50.882;5.350;2022-07-23T14:21:35;7.65;;;2.95;;
18752;SDS011;9505;50.882;5.350;2022-07-23T14:24:01;15.48;;;3.55;;
18752;SDS011;9505;50.882;5.350;2022-07-23T14:26:27;6.60;;;2.38;;
18752;SDS011;9505;50.882;5.350;2022-07-23T14:28:53;8.38;;;2.75;;
18752;SDS011;9505;50.882;5.350;2022-07-23T14:31:18;7.40;;;3.05;;
18752;SDS011;9505;50.882;5.350;2022-07-23T14:33:44;6.80;;;2.20;;
18752;SDS011;9505;50.882;5.350;2022-07-23T14:36:10;8.75;;;2.75;;
18752;SDS011;9505;50.882;5.350;2022-07-23T14:38:35;10.15;;;2.20;;
18752;SDS011;9505;50.882;5.350;2022-07-23T14:41:01;10.07;;;2.58;;
18752;SDS011;9505;50.882;5.350;2022-07-23T14:43:27;11.95;;;2.75;;
18752;SDS011;9505;50.882;5.350;2022-07-23T14:45:52;9.65;;;2.90;;
18752;SDS011;9505;50.882;5.350;2022-07-23T14:48:18;8.82;;;2.72;;
18752;SDS011;9505;50.882;5.350;2022-07-23T14:50:43;9.10;;;2.50;;
18752;SDS011;9505;50.882;5.350;2022-07-23T14:53:09;7.80;;;2.55;;
18752;SDS011;9505;50.882;5.350;2022-07-23T14:55:35;6.82;;;2.50;;
18752;SDS011;9505;50.882;5.350;2022-07-23T14:58:00;11.27;;;3.30;;
18752;SDS011;9505;50.882;5.350;2022-07-23T15:00:26;11.75;;;3.08;;
18752;SDS011;9505;50.882;5.350;2022-07-23T15:02:52;10.55;;;3.10;;
18752;SDS011;9505;50.882;5.350;2022-07-23T15:05:18;9.73;;;3.53;;
18752;SDS011;9505;50.882;5.350;2022-07-23T15:07:44;11.23;;;2.88;;
18752;SDS011;9505;50.882;5.350;2022-07-23T15:10:10;8.60;;;2.88;;
18752;SDS011;9505;50.882;5.350;2022-07-23T15:12:36;9.25;;;3.17;;
18752;SDS011;9505;50.882;5.350;2022-07-23T15:15:02;12.05;;;3.28;;
18752;SDS011;9505;50.882;5.350;2022-07-23T15:17:29;9.63;;;3.10;;
18752;SDS011;9505;50.882;5.350;2022-07-23T15:19:54;9.90;;;3.05;;
18752;SDS011;9505;50.882;5.350;2022-07-23T15:22:20;9.20;;;2.65;;
18752;SDS011;9505;50.882;5.350;2022-07-23T15:24:46;8.68;;;2.70;;
18752;SDS011;9505;50.882;5.350;2022-07-23T15:27:12;11.05;;;3.15;;
18752;SDS011;9505;50.882;5.350;2022-07-23T15:29:39;11.40;;;3.08;;
18752;SDS011;9505;50.882;5.350;2022-07-23T15:32:04;9.57;;;3.03;;
18752;SDS011;9505;50.882;5.350;2022-07-23T15:34:30;8.30;;;3.08;;
18752;SDS011;9505;50.882;5.350;2022-07-23T15:36:56;11.70;;;3.53;;
18752;SDS011;9505;50.882;5.350;2022-07-23T15:39:25;15.55;;;3.60;;
18752;SDS011;9505;50.882;5.350;2022-07-23T15:41:51;9.65;;;2.95;;